메인 페이지
METAR-TAF:

METAR-TAF

공항 :

잭슨 국제공항

포트모르즈비, 파푸아뉴기니

위도: 09-26S, 경도: 147-13E, 고도: 38m

현재 날씨관측

예보는 3 시간 34분 전, 12:00시(UTC)에 발표되었습니다.
동남동6kt
온도 26°C
습도 94%
기압 1009 hPa
시정 10km 이상
고도 4000ft 상공 구름 보통
고도 5000ft 상공 구름 많음

METAR: AYPY 241200Z 11006KT 9999 SCT040 BKN050 26/25 Q1009

시각: 01:34 (15:34 UTC)

예보

예보는 10 시간 33분 전, 05:01시(UTC)에 발표되었습니다.
예보 대상 시간: 24일 06시부터 25일 06시까지 (UTC)
남동10kt
시정 10km 이상
고도 1800ft 상공 구름 보통
고도 3000ft 상공 구름 보통
고도 12000ft 상공 구름 많음
약한소나기
24일 1100시부터 (UTC)
남남동6kt
시정 10km 이상
고도 4000ft 상공 구름 보통
고도 14000ft 상공 구름 많음
약한비, 이슬비
확률 30%
IN시부터 TE시까지 (UTC)
시정: 1006m
고도 800ft 상공 구름 많음
고도 1800ft 상공 구름 조금, 적란운.
뇌우, 비

TAF: AYPY 240501Z 2406/2506 14010KT 9999 -SHRA SCT018 SCT030 BKN120 FM241100 16006KT 9999 -RADZ SCT040 BKN140 PROB30 INTER 2406/2410 3000 TSRA BKN008 FEW018CB T 31 29 27 25 Q 1004 1005 1007 1006

4,000개 이상의 공항 관측 자료 및 예보 (METAR 및 TAF 보고).

지도상에서 검색 가능한 기상관측소가 노란 점과 빨간 점으로 표시되어 있습니다.

기상관측소 명을 보려면 표시 위로 마우스를 이동하세요.

날씨 관측과 예보를 보려면 클릭하세요.

지도 변경 : 확대하려면 엑스 표시가 있는 녹색 버튼, 축소하려면 빼기 표시가 있는 녹색 버튼, 다음 페이지의 지도를 보려면 녹색 화살표를 클릭하세요.


METAR-TAF: